createdAt,value
2022-10-12T00:00:30.805Z,13.73
2022-10-12T00:03:32.820Z,14.73
2022-10-12T00:06:34.393Z,15.30
2022-10-12T00:09:36.002Z,13.90
2022-10-12T00:12:37.696Z,14.27
2022-10-12T00:15:39.695Z,15.30
2022-10-12T00:18:41.268Z,15.27
2022-10-12T00:21:43.051Z,14.63
2022-10-12T00:24:44.607Z,14.70
2022-10-12T00:27:46.473Z,14.80
2022-10-12T00:30:48.049Z,15.10
2022-10-12T00:33:49.763Z,15.03
2022-10-12T00:36:51.390Z,15.20
2022-10-12T00:39:53.009Z,15.50
2022-10-12T00:42:54.636Z,15.10
2022-10-12T00:45:56.765Z,15.53
2022-10-12T00:49:00.009Z,15.07
2022-10-12T00:52:05.102Z,14.30
2022-10-12T00:55:07.939Z,15.43
2022-10-12T00:58:10.072Z,14.90
2022-10-12T01:01:11.942Z,15.53
2022-10-12T01:04:13.833Z,14.67
2022-10-12T01:07:15.428Z,15.60
2022-10-12T01:10:17.010Z,15.80
2022-10-12T01:13:18.606Z,14.47
2022-10-12T01:16:23.029Z,14.10
2022-10-12T01:19:30.387Z,14.70
2022-10-12T01:22:34.463Z,13.97
2022-10-12T01:25:54.902Z,14.17
2022-10-12T01:28:59.325Z,14.40
2022-10-12T01:32:00.834Z,14.73
2022-10-12T01:35:14.429Z,14.77
2022-10-12T01:38:42.470Z,15.60
2022-10-12T01:41:48.810Z,15.47
2022-10-12T01:44:50.477Z,14.10
2022-10-12T01:47:53.812Z,15.10
2022-10-12T01:50:56.184Z,15.70
2022-10-12T01:54:29.959Z,15.50
2022-10-12T01:57:31.505Z,14.70
2022-10-12T02:00:35.670Z,15.00
2022-10-12T02:03:45.070Z,14.97
2022-10-12T02:06:49.879Z,15.23
2022-10-12T02:09:52.949Z,14.77
2022-10-12T02:12:54.911Z,15.53
2022-10-12T02:15:58.399Z,15.37
2022-10-12T02:19:00.462Z,15.30
2022-10-12T02:22:03.006Z,15.23
2022-10-12T02:25:06.171Z,15.50
2022-10-12T02:28:09.734Z,15.47
2022-10-12T02:31:20.661Z,15.83
2022-10-12T02:34:24.856Z,15.57
2022-10-12T02:37:26.362Z,15.47
2022-10-12T02:40:33.710Z,15.03
2022-10-12T02:43:38.357Z,14.97
2022-10-12T02:46:40.803Z,15.37
2022-10-12T02:49:44.109Z,15.40
2022-10-12T02:52:46.897Z,14.10
2022-10-12T02:55:49.807Z,13.80
2022-10-12T02:58:51.397Z,14.67
2022-10-12T03:01:52.978Z,14.50
2022-10-12T03:04:54.941Z,13.47
2022-10-12T03:07:56.518Z,13.93
2022-10-12T03:11:05.233Z,14.23
2022-10-12T03:14:06.856Z,14.13
2022-10-12T03:17:08.472Z,14.57
2022-10-12T03:20:10.340Z,13.43
2022-10-12T03:23:11.978Z,14.63
2022-10-12T03:26:13.576Z,15.80
2022-10-12T03:29:15.201Z,14.57
2022-10-12T03:32:16.966Z,14.30
2022-10-12T03:35:18.620Z,14.50
2022-10-12T03:38:20.306Z,13.90
2022-10-12T03:41:22.007Z,14.57
2022-10-12T03:44:23.699Z,14.90
2022-10-12T03:47:25.314Z,14.60
2022-10-12T03:50:26.878Z,15.43
2022-10-12T03:53:28.425Z,15.03
2022-10-12T03:56:30.044Z,15.07
2022-10-12T03:59:31.644Z,14.70
2022-10-12T04:02:33.240Z,14.53
2022-10-12T04:05:34.839Z,14.40
2022-10-12T04:08:36.465Z,14.07
2022-10-12T04:11:38.026Z,14.60
2022-10-12T04:14:39.777Z,14.13
2022-10-12T04:17:41.769Z,14.60
2022-10-12T04:20:43.488Z,14.87
2022-10-12T04:23:45.190Z,14.27
2022-10-12T04:26:46.837Z,15.03
2022-10-12T04:29:48.395Z,15.10
2022-10-12T04:32:50.279Z,14.03
2022-10-12T04:35:54.321Z,14.93
2022-10-12T04:39:00.677Z,14.57
2022-10-12T04:42:02.972Z,14.90
2022-10-12T04:45:04.807Z,14.50
2022-10-12T04:48:06.429Z,15.43
2022-10-12T04:51:08.016Z,17.67
2022-10-12T04:54:10.149Z,16.60
2022-10-12T04:57:11.772Z,15.40
2022-10-12T05:00:13.685Z,15.10
2022-10-12T05:03:15.271Z,15.67
2022-10-12T05:06:17.096Z,14.63
2022-10-12T05:09:18.795Z,13.83
2022-10-12T05:12:20.554Z,14.23
2022-10-12T05:15:22.181Z,14.53
2022-10-12T05:18:24.073Z,16.70
2022-10-12T05:21:25.624Z,14.83
2022-10-12T05:24:27.580Z,13.77
2022-10-12T05:27:29.142Z,14.73
2022-10-12T05:30:30.682Z,14.93
2022-10-12T05:33:32.347Z,14.87
2022-10-12T05:36:33.909Z,21.70
2022-10-12T05:39:37.242Z,24.90
2022-10-12T05:42:39.261Z,22.00
2022-10-12T05:45:41.115Z,23.23
2022-10-12T05:48:42.775Z,21.20
2022-10-12T05:51:44.676Z,19.80
2022-10-12T05:54:46.274Z,19.60
2022-10-12T05:57:52.030Z,19.33
2022-10-12T06:00:53.846Z,20.73
2022-10-12T06:03:55.572Z,21.03
2022-10-12T06:06:57.191Z,21.13
2022-10-12T06:09:58.844Z,21.07
2022-10-12T06:13:01.806Z,20.80
2022-10-12T06:16:03.630Z,23.37
2022-10-12T06:19:05.265Z,20.47
2022-10-12T06:22:07.727Z,20.53
2022-10-12T06:25:09.480Z,20.07
2022-10-12T06:28:11.150Z,19.27
2022-10-12T06:31:12.887Z,19.90
2022-10-12T06:34:14.457Z,20.70
2022-10-12T06:37:44.533Z,22.07
2022-10-12T06:40:37.627Z,18.60
2022-10-12T06:43:39.241Z,18.90
2022-10-12T06:46:40.895Z,17.97
2022-10-12T06:49:42.500Z,17.23
2022-10-12T06:52:44.132Z,16.20
2022-10-12T06:55:45.776Z,16.37
2022-10-12T06:58:47.419Z,16.00
2022-10-12T07:01:50.035Z,21.27
2022-10-12T07:04:52.409Z,17.03
2022-10-12T07:07:54.143Z,16.63
2022-10-12T07:11:00.274Z,17.90
2022-10-12T07:14:01.969Z,15.80
2022-10-12T07:17:03.541Z,16.27
2022-10-12T07:20:05.874Z,19.23
2022-10-12T07:23:07.470Z,20.13
2022-10-12T07:26:09.645Z,17.93
2022-10-12T07:29:11.278Z,17.80
2022-10-12T07:32:12.967Z,16.33
2022-10-12T07:35:14.555Z,14.67
2022-10-12T07:38:16.241Z,14.83
2022-10-12T07:41:18.151Z,15.63
2022-10-12T07:44:21.090Z,14.17
2022-10-12T07:47:22.877Z,15.83
2022-10-12T07:50:25.378Z,14.77
2022-10-12T07:53:26.969Z,14.37
2022-10-12T07:56:28.653Z,13.20
2022-10-12T07:59:30.214Z,13.73
2022-10-12T08:02:31.869Z,14.50
2022-10-12T08:05:33.445Z,13.37
2022-10-12T08:08:35.157Z,12.50
2022-10-12T08:11:40.525Z,13.37
2022-10-12T08:14:42.094Z,14.00
2022-10-12T08:17:43.777Z,13.90
2022-10-12T08:20:45.457Z,13.20
2022-10-12T08:23:47.220Z,12.73
2022-10-12T08:26:48.838Z,12.07
2022-10-12T08:29:50.427Z,12.63
2022-10-12T08:32:52.172Z,14.07
2022-10-12T08:35:53.833Z,13.47
2022-10-12T08:38:55.831Z,12.57
2022-10-12T08:42:09.749Z,12.60
2022-10-12T08:45:31.680Z,13.93
2022-10-12T08:48:45.264Z,13.40
2022-10-12T08:51:51.780Z,13.17
2022-10-12T08:54:53.495Z,13.80
2022-10-12T08:57:55.095Z,13.03
2022-10-12T09:01:16.654Z,13.00
2022-10-12T09:04:27.674Z,12.40
2022-10-12T09:07:31.024Z,13.10
2022-10-12T09:10:32.896Z,11.77
2022-10-12T09:13:37.558Z,12.43
2022-10-12T09:16:46.854Z,11.97
2022-10-12T09:19:48.878Z,11.20
2022-10-12T09:22:51.746Z,11.60
2022-10-12T09:25:59.060Z,11.80
2022-10-12T09:29:01.051Z,11.70
2022-10-12T09:32:11.134Z,12.13
2022-10-12T09:35:13.685Z,12.33
2022-10-12T09:38:15.669Z,11.60
2022-10-12T09:41:23.389Z,10.40
2022-10-12T09:44:34.296Z,11.13
2022-10-12T09:47:35.900Z,10.70
2022-10-12T09:50:49.852Z,11.17
2022-10-12T09:53:56.721Z,10.70
2022-10-12T09:56:59.313Z,11.00
2022-10-12T10:00:08.618Z,10.93
2022-10-12T10:03:26.671Z,11.17
2022-10-12T10:06:30.844Z,9.97
2022-10-12T10:09:33.885Z,10.13
2022-10-12T10:12:39.258Z,13.10
2022-10-12T10:15:42.621Z,10.10
2022-10-12T10:18:48.616Z,10.27
2022-10-12T10:21:50.544Z,10.10
2022-10-12T10:25:00.167Z,10.50
2022-10-12T10:28:10.303Z,10.43
2022-10-12T10:31:17.060Z,9.70
2022-10-12T10:34:18.661Z,10.20
2022-10-12T10:37:22.815Z,9.73
2022-10-12T10:40:26.365Z,9.37
2022-10-12T10:43:29.431Z,10.00
2022-10-12T10:46:32.867Z,10.57
2022-10-12T10:49:37.684Z,9.80
2022-10-12T10:52:40.529Z,10.10
2022-10-12T10:55:42.389Z,10.60
2022-10-12T10:58:45.090Z,9.70
2022-10-12T11:01:54.650Z,9.90
2022-10-12T11:05:00.132Z,12.13
2022-10-12T11:08:03.378Z,10.10
2022-10-12T11:11:11.195Z,9.60
2022-10-12T11:14:16.291Z,9.40
2022-10-12T11:17:17.939Z,9.97
2022-10-12T11:20:30.941Z,9.50
2022-10-12T11:23:58.804Z,10.00
2022-10-12T11:27:06.897Z,8.93
2022-10-12T11:30:16.650Z,9.60
2022-10-12T11:33:21.907Z,9.00
2022-10-12T11:36:24.771Z,8.90
2022-10-12T11:39:38.387Z,8.53
2022-10-12T11:42:43.589Z,9.57
2022-10-12T11:45:49.573Z,9.00
2022-10-12T11:48:57.195Z,8.63
2022-10-12T11:52:01.872Z,8.63
2022-10-12T11:55:22.718Z,7.97
2022-10-12T11:58:42.363Z,8.80
2022-10-12T12:02:17.674Z,7.80
2022-10-12T12:05:19.404Z,9.10
2022-10-12T12:08:40.539Z,9.00
2022-10-12T12:11:42.228Z,8.53
2022-10-12T12:14:48.877Z,8.90
2022-10-12T12:18:11.385Z,8.50
2022-10-12T12:21:13.338Z,8.00
2022-10-12T12:24:16.721Z,8.27
2022-10-12T12:27:38.041Z,7.90
2022-10-12T12:30:40.663Z,7.97
2022-10-12T12:33:43.513Z,7.90
2022-10-12T12:36:46.443Z,8.27
2022-10-12T12:39:56.010Z,8.17
2022-10-12T12:43:16.125Z,14.30
2022-10-12T12:46:18.071Z,8.73
2022-10-12T12:49:27.524Z,8.57
2022-10-12T12:52:33.675Z,8.50
2022-10-12T12:55:40.645Z,6.83
2022-10-12T12:58:55.654Z,6.80
2022-10-12T13:02:15.696Z,6.37
2022-10-12T13:05:34.870Z,5.33
2022-10-12T13:08:36.500Z,5.43
2022-10-12T13:11:44.087Z,5.23
2022-10-12T13:15:04.342Z,6.13
2022-10-12T13:18:18.453Z,6.20
2022-10-12T13:21:45.980Z,5.50
2022-10-12T13:24:50.381Z,5.83
2022-10-12T13:27:53.045Z,5.73
2022-10-12T13:31:15.841Z,5.73
2022-10-12T13:34:36.481Z,6.63
2022-10-12T13:37:38.330Z,6.27
2022-10-12T13:40:42.096Z,6.20
2022-10-12T13:43:53.041Z,7.13
2022-10-12T13:47:04.414Z,6.30
2022-10-12T13:50:26.897Z,9.73
2022-10-12T13:53:36.965Z,7.63
2022-10-12T13:56:38.743Z,7.93
2022-10-12T13:59:40.386Z,6.90
2022-10-12T14:02:43.393Z,6.73
2022-10-12T14:05:45.849Z,5.97
2022-10-12T14:08:47.602Z,5.90
2022-10-12T14:11:50.007Z,6.50
2022-10-12T14:14:51.916Z,6.50
2022-10-12T14:17:54.935Z,6.90
2022-10-12T14:21:17.849Z,6.87
2022-10-12T14:24:19.970Z,6.80
2022-10-12T14:27:23.831Z,7.20
2022-10-12T14:30:29.440Z,7.03
2022-10-12T14:33:32.793Z,7.20
2022-10-12T14:36:34.393Z,7.10
2022-10-12T14:39:36.159Z,7.40
2022-10-12T14:42:37.779Z,7.70
2022-10-12T14:45:39.427Z,6.87
2022-10-12T14:48:41.013Z,9.00
2022-10-12T14:51:42.846Z,7.40
2022-10-12T14:54:44.479Z,7.50
2022-10-12T14:57:46.580Z,7.63
2022-10-12T15:00:48.706Z,6.83
2022-10-12T15:03:50.418Z,6.67
2022-10-12T15:06:51.981Z,7.97
2022-10-12T15:09:53.726Z,8.40
2022-10-12T15:12:55.325Z,7.57
2022-10-12T15:15:57.104Z,11.13
2022-10-12T15:18:58.848Z,9.07
2022-10-12T15:22:00.466Z,7.80
2022-10-12T15:25:02.055Z,7.33
2022-10-12T15:30:58.063Z,9.13
2022-10-12T15:34:01.707Z,9.13
2022-10-12T15:37:07.986Z,9.80
2022-10-12T15:40:11.425Z,9.67
2022-10-12T15:43:13.199Z,10.67
2022-10-12T15:46:15.023Z,13.60
2022-10-12T15:49:19.796Z,10.93
2022-10-12T15:52:21.727Z,9.70
2022-10-12T15:55:25.132Z,9.00
2022-10-12T15:58:26.720Z,9.83
2022-10-12T16:01:29.343Z,9.57
2022-10-12T16:04:30.997Z,10.03
2022-10-12T16:07:32.643Z,9.40
2022-10-12T16:10:36.878Z,12.33
2022-10-12T16:13:45.087Z,15.00
2022-10-12T16:16:49.662Z,14.47
2022-10-12T16:19:51.221Z,13.90
2022-10-12T16:22:53.019Z,12.73
2022-10-12T16:25:55.357Z,13.33
2022-10-12T16:28:57.089Z,12.77
2022-10-12T16:31:58.797Z,15.20
2022-10-12T16:35:00.827Z,14.00
2022-10-12T16:38:02.476Z,14.63
2022-10-12T16:41:14.419Z,15.30
2022-10-12T16:44:18.487Z,16.43
2022-10-12T16:47:25.343Z,18.27
2022-10-12T16:50:26.961Z,17.83
2022-10-12T16:53:28.634Z,15.97
2022-10-12T16:56:30.255Z,16.93
2022-10-12T16:59:31.988Z,14.60
2022-10-12T17:02:33.651Z,15.23
2022-10-12T17:05:35.273Z,17.27
2022-10-12T17:08:39.078Z,15.27
2022-10-12T17:11:41.230Z,15.37
2022-10-12T17:14:42.896Z,13.70
2022-10-12T17:17:44.519Z,13.53
2022-10-12T17:20:48.269Z,15.87
2022-10-12T17:23:56.690Z,13.60
2022-10-12T17:26:58.383Z,12.77
2022-10-12T17:30:00.173Z,27.07
2022-10-12T17:33:01.856Z,18.20
2022-10-12T17:36:08.762Z,15.00
2022-10-12T17:39:13.502Z,15.57
2022-10-12T17:42:18.812Z,13.17
2022-10-12T17:45:20.725Z,12.10
2022-10-12T17:48:22.806Z,12.13
2022-10-12T17:51:25.268Z,11.93
2022-10-12T17:54:27.230Z,11.93
2022-10-12T17:57:28.827Z,11.23
2022-10-12T18:00:31.356Z,11.13
2022-10-12T18:03:33.474Z,10.57
2022-10-12T18:06:36.308Z,11.07
2022-10-12T18:09:38.391Z,14.40
2022-10-12T18:12:41.686Z,10.43
2022-10-12T18:15:43.912Z,10.03
2022-10-12T18:18:45.708Z,10.17
2022-10-12T18:21:47.437Z,10.37
2022-10-12T18:24:49.145Z,10.00
2022-10-12T18:27:51.688Z,10.47
2022-10-12T18:30:53.500Z,11.33
2022-10-12T18:33:56.016Z,13.37
2022-10-12T18:36:57.622Z,13.67
2022-10-12T18:39:59.211Z,11.40
2022-10-12T18:43:00.848Z,11.67
2022-10-12T18:46:09.659Z,10.80
2022-10-12T18:49:13.898Z,11.27
2022-10-12T18:52:15.842Z,11.33
2022-10-12T18:55:17.687Z,11.53
2022-10-12T18:58:19.364Z,11.70
2022-10-12T19:01:24.373Z,10.90
2022-10-12T19:04:26.261Z,10.67
2022-10-12T19:07:27.954Z,10.37
2022-10-12T19:10:29.542Z,9.37
2022-10-12T19:13:31.162Z,10.13
2022-10-12T19:16:33.687Z,9.23
2022-10-12T19:19:35.558Z,9.50
2022-10-12T19:22:37.646Z,9.90
2022-10-12T19:25:40.008Z,10.57
2022-10-12T19:28:42.039Z,9.67
2022-10-12T19:31:45.699Z,8.80
2022-10-12T19:34:50.430Z,8.90
2022-10-12T19:37:53.950Z,10.20
2022-10-12T19:40:55.577Z,9.20
2022-10-12T19:43:57.899Z,9.00
2022-10-12T19:47:00.013Z,11.07
2022-10-12T19:50:01.779Z,10.00
2022-10-12T19:53:03.483Z,11.00
2022-10-12T19:56:15.731Z,13.17
2022-10-12T19:59:17.686Z,14.57
2022-10-12T20:02:20.127Z,16.17
2022-10-12T20:05:21.989Z,15.90
2022-10-12T20:08:24.131Z,13.33
2022-10-12T20:11:26.112Z,13.07
2022-10-12T20:14:29.948Z,13.50
2022-10-12T20:17:31.551Z,10.87
2022-10-12T20:20:33.536Z,12.93
2022-10-12T20:23:35.879Z,11.37
2022-10-12T20:26:39.076Z,11.17
2022-10-12T20:29:41.429Z,11.60
2022-10-12T20:32:42.986Z,10.60
2022-10-12T20:35:48.570Z,9.97
2022-10-12T20:38:50.238Z,9.77
2022-10-12T20:41:51.799Z,12.93
2022-10-12T20:44:53.380Z,8.87
2022-10-12T20:47:55.024Z,12.47
2022-10-12T20:50:56.803Z,9.80
2022-10-12T20:54:00.467Z,12.23
2022-10-12T20:57:03.156Z,10.50
2022-10-12T21:00:05.815Z,10.43
2022-10-12T21:03:07.468Z,10.17
2022-10-12T21:06:10.775Z,10.30
2022-10-12T21:09:13.993Z,10.53
2022-10-12T21:12:15.826Z,9.87
2022-10-12T21:15:17.715Z,11.00
2022-10-12T21:18:19.792Z,9.57
2022-10-12T21:21:21.464Z,11.20
2022-10-12T21:24:23.088Z,10.90
2022-10-12T21:27:24.725Z,9.73
2022-10-12T21:30:26.701Z,9.73
2022-10-12T21:33:28.493Z,9.23
2022-10-12T21:36:30.606Z,10.37
2022-10-12T21:39:32.241Z,10.40
2022-10-12T21:42:33.838Z,9.40
2022-10-12T21:45:35.417Z,9.60
2022-10-12T21:48:37.222Z,9.13
2022-10-12T21:51:40.327Z,8.97
2022-10-12T21:54:41.963Z,8.73
2022-10-12T21:57:43.710Z,8.93
2022-10-12T22:00:45.398Z,9.17
2022-10-12T22:03:48.450Z,9.37
2022-10-12T22:06:50.155Z,8.70
2022-10-12T22:09:51.821Z,9.33
2022-10-12T22:12:53.502Z,8.53
2022-10-12T22:16:02.734Z,8.90
2022-10-12T22:19:05.591Z,8.60
2022-10-12T22:22:07.137Z,9.57
2022-10-12T22:25:08.824Z,8.93
2022-10-12T22:28:12.219Z,8.40
2022-10-12T22:31:17.230Z,7.70
2022-10-12T22:34:18.864Z,12.20
2022-10-12T22:37:20.906Z,11.63
2022-10-12T22:40:22.483Z,9.60
2022-10-12T22:43:24.860Z,9.57
2022-10-12T22:46:26.845Z,11.70
2022-10-12T22:49:28.504Z,11.77
2022-10-12T22:52:31.589Z,11.97
2022-10-12T22:55:33.146Z,8.30
2022-10-12T22:58:35.568Z,7.70
2022-10-12T23:01:37.202Z,7.27
2022-10-12T23:04:38.720Z,7.63
2022-10-12T23:07:40.391Z,7.73
2022-10-12T23:10:42.090Z,7.53
2022-10-12T23:13:44.107Z,7.57
2022-10-12T23:16:45.749Z,7.67
2022-10-12T23:19:47.329Z,7.70
2022-10-12T23:22:48.878Z,7.20
2022-10-12T23:25:50.709Z,7.97
2022-10-12T23:28:52.906Z,7.90
2022-10-12T23:31:54.500Z,7.97
2022-10-12T23:34:56.282Z,9.30
2022-10-12T23:37:57.860Z,8.73
2022-10-12T23:40:59.578Z,8.43
2022-10-12T23:44:01.188Z,8.20
2022-10-12T23:47:02.752Z,8.07
2022-10-12T23:50:04.430Z,8.20
2022-10-12T23:53:06.696Z,9.70
2022-10-12T23:56:08.357Z,9.83
2022-10-12T23:59:09.976Z,8.37
